Time;durP1;ratioP1;P1;durP2;ratioP2;P2;SDS_P1;SDS_P2;PMS_P1;PMS_P2;Temp;Humidity;BMP_temperature;BMP_pressure;BME280_temperature;BME280_humidity;BME280_pressure;Samples;Min_cycle;Max_cycle;Signal;HPM_P1;HPM_P2
2022/06/28 00:00:06;;;;;;;42.05;28.20;;;12.20;99.90;;;;;;5095542;28;20432;-65
2022/06/28 00:02:31;;;;;;;45.58;31.25;;;12.10;99.90;;;;;;5095028;28;20559;-65
2022/06/28 00:04:57;;;;;;;47.85;31.35;;;12.10;99.90;;;;;;5095199;28;20051;-65
2022/06/28 00:07:23;;;;;;;58.13;32.65;;;12.10;99.90;;;;;;5095210;28;20024;-65
2022/06/28 00:09:48;;;;;;;58.45;36.40;;;12.10;99.90;;;;;;5095323;28;20062;-65
2022/06/28 00:12:14;;;;;;;48.90;31.92;;;12.10;99.90;;;;;;5093819;28;20024;-65
2022/06/28 00:17:25;;;;;;;41.17;29.13;;;12.10;99.90;;;;;;5094852;28;20457;-65
2022/06/28 00:19:51;;;;;;;39.08;25.67;;;12.00;99.90;;;;;;5095162;28;20024;-65
2022/06/28 00:22:17;;;;;;;41.50;27.52;;;12.00;99.90;;;;;;5095076;28;20156;-65
2022/06/28 00:24:42;;;;;;;44.05;27.08;;;11.90;99.90;;;;;;5093816;28;20483;-65
2022/06/28 00:27:08;;;;;;;41.05;27.17;;;11.90;99.90;;;;;;5094743;28;20470;-65
2022/06/28 00:29:33;;;;;;;41.55;28.25;;;11.90;99.90;;;;;;5094965;28;20020;-65
2022/06/28 00:31:59;;;;;;;45.35;29.17;;;11.90;99.90;;;;;;5093758;28;20107;-65
2022/06/28 00:34:24;;;;;;;44.58;29.42;;;11.90;99.90;;;;;;5094911;28;20470;-65
2022/06/28 00:36:50;;;;;;;38.28;26.92;;;11.80;99.90;;;;;;5094649;28;20498;-66
2022/06/28 00:39:16;;;;;;;39.90;27.65;;;11.80;99.90;;;;;;5094703;28;20432;-65
2022/06/28 00:41:42;;;;;;;41.97;28.35;;;11.80;99.90;;;;;;5094703;28;20028;-65
2022/06/28 00:44:10;;;;;;;49.30;30.17;;;11.80;99.90;;;;;;5094458;28;20389;-66
2022/06/28 00:46:36;;;;;;;40.80;28.48;;;11.70;99.90;;;;;;5094416;28;20062;-65
2022/06/28 00:49:02;;;;;;;46.10;28.38;;;11.70;99.90;;;;;;5094617;28;20023;-65
2022/06/28 00:51:28;;;;;;;50.30;33.63;;;11.70;99.90;;;;;;5094352;28;20031;-65
2022/06/28 00:53:54;;;;;;;62.30;38.53;;;11.80;99.90;;;;;;5094461;28;20111;-65
2022/06/28 00:56:21;;;;;;;50.83;31.73;;;11.80;99.90;;;;;;5094508;28;20024;-65
2022/06/28 00:58:46;;;;;;;43.78;29.90;;;11.80;99.90;;;;;;5094466;28;20046;-65
2022/06/28 01:01:12;;;;;;;41.97;29.15;;;11.80;99.90;;;;;;5093799;28;20043;-65
2022/06/28 01:03:38;;;;;;;49.88;31.83;;;11.80;99.90;;;;;;5094354;28;20020;-65
2022/06/28 01:06:03;;;;;;;45.55;30.90;;;11.70;99.90;;;;;;5094294;28;20394;-65
2022/06/28 01:08:29;;;;;;;47.67;31.88;;;11.70;99.90;;;;;;5094280;28;20467;-64
2022/06/28 01:10:55;;;;;;;43.75;28.63;;;11.70;99.90;;;;;;5094222;28;20020;-66
2022/06/28 01:13:20;;;;;;;46.75;30.13;;;11.70;99.90;;;;;;5093860;28;20543;-65
2022/06/28 01:15:46;;;;;;;49.35;31.95;;;11.60;99.90;;;;;;5092770;28;20027;-65
2022/06/28 01:18:13;;;;;;;45.13;29.65;;;11.60;99.90;;;;;;5094049;28;20099;-65
2022/06/28 01:20:43;;;;;;;45.45;30.50;;;11.60;99.90;;;;;;5094032;28;20028;-65
2022/06/28 01:23:09;;;;;;;41.53;28.65;;;11.60;99.90;;;;;;5093634;28;20474;-65
2022/06/28 01:25:35;;;;;;;40.90;28.20;;;11.50;99.90;;;;;;5093999;28;20074;-64
2022/06/28 01:28:01;;;;;;;36.13;27.10;;;11.50;99.90;;;;;;5093609;28;20027;-64
2022/06/28 01:30:27;;;;;;;42.40;27.92;;;11.50;99.90;;;;;;5093886;28;20103;-65
2022/06/28 01:32:53;;;;;;;38.58;26.20;;;11.40;99.90;;;;;;5093652;28;20106;-65
2022/06/28 01:35:19;;;;;;;38.38;26.38;;;11.40;99.90;;;;;;5093642;28;20024;-65
2022/06/28 01:37:48;;;;;;;33.97;24.08;;;11.40;99.90;;;;;;5092125;28;20028;-66
2022/06/28 01:40:14;;;;;;;35.30;24.92;;;11.40;99.90;;;;;;5092374;28;20076;-65
2022/06/28 01:42:39;;;;;;;35.55;24.83;;;11.40;99.90;;;;;;5093670;28;20106;-65
2022/06/28 01:45:05;;;;;;;42.45;28.50;;;11.40;99.90;;;;;;5093505;28;20024;-64
2022/06/28 01:47:35;;;;;;;35.95;25.45;;;11.30;99.90;;;;;;5093445;28;20216;-65
2022/06/28 01:50:01;;;;;;;37.13;25.77;;;11.30;99.90;;;;;;5093354;28;20107;-65
2022/06/28 01:52:27;;;;;;;34.03;24.40;;;11.30;99.90;;;;;;5093348;28;20035;-65
2022/06/28 01:54:52;;;;;;;32.85;24.60;;;11.30;99.90;;;;;;5093295;28;20028;-65
2022/06/28 01:57:18;;;;;;;32.22;24.00;;;11.20;99.90;;;;;;5093464;28;20075;-65
2022/06/28 01:59:44;;;;;;;35.25;23.65;;;11.20;99.90;;;;;;5093507;28;20082;-65
2022/06/28 02:02:09;;;;;;;32.53;23.02;;;11.20;99.90;;;;;;5092999;28;20071;-65
2022/06/28 02:04:35;;;;;;;36.00;23.65;;;11.20;99.90;;;;;;5093269;28;20441;-65
2022/06/28 02:07:01;;;;;;;33.47;24.02;;;11.10;99.90;;;;;;5093193;28;20024;-64
2022/06/28 02:09:27;;;;;;;36.72;24.77;;;11.20;99.90;;;;;;5093130;28;20058;-65
2022/06/28 02:11:53;;;;;;;32.20;23.70;;;11.20;99.90;;;;;;5093438;28;20501;-65
2022/06/28 02:14:20;;;;;;;34.35;24.23;;;11.10;99.90;;;;;;5093223;28;20076;-65
2022/06/28 02:16:46;;;;;;;31.52;23.73;;;11.10;99.90;;;;;;5093425;28;20531;-65
2022/06/28 02:19:12;;;;;;;35.05;25.40;;;11.10;99.90;;;;;;5093091;28;20020;-65
2022/06/28 02:21:40;;;;;;;36.05;24.77;;;11.10;99.90;;;;;;5092079;28;20470;-65
2022/06/28 02:24:07;;;;;;;43.58;29.40;;;11.10;99.90;;;;;;5093301;28;20032;-65
2022/06/28 02:26:33;;;;;;;47.97;30.85;;;11.10;99.90;;;;;;5093043;28;20028;-65
2022/06/28 02:29:00;;;;;;;43.97;30.23;;;11.10;99.90;;;;;;5093036;28;20387;-65
2022/06/28 02:31:26;;;;;;;58.50;33.83;;;11.10;99.90;;;;;;5093183;28;20032;-66
2022/06/28 02:33:51;;;;;;;43.83;29.73;;;11.20;99.90;;;;;;5093227;28;20495;-65
2022/06/28 02:41:48;;;;;;;48.20;31.48;;;11.20;99.90;;;;;;5092682;28;20478;-65
2022/06/28 02:44:17;;;;;;;43.67;29.85;;;11.30;99.90;;;;;;5092847;28;20020;-65
2022/06/28 02:46:44;;;;;;;50.72;31.77;;;11.20;99.90;;;;;;5093098;28;20032;-64
2022/06/28 02:49:10;;;;;;;52.67;34.03;;;11.20;99.90;;;;;;5094024;28;20024;-64
2022/06/28 02:51:35;;;;;;;54.28;33.67;;;11.30;99.90;;;;;;5096661;28;20050;-65
2022/06/28 02:54:01;;;;;;;48.67;30.25;;;11.30;99.90;;;;;;5096554;28;20028;-65
2022/06/28 02:56:26;;;;;;;53.80;31.90;;;11.30;99.90;;;;;;5096848;28;20078;-65
2022/06/28 02:58:52;;;;;;;55.28;34.35;;;11.20;99.90;;;;;;5095581;28;20031;-65
2022/06/28 03:01:18;;;;;;;59.58;35.38;;;11.20;99.90;;;;;;5095156;28;20444;-65
2022/06/28 03:03:43;;;;;;;57.67;35.78;;;11.30;99.90;;;;;;5096628;28;20024;-65
2022/06/28 03:06:09;;;;;;;57.35;34.33;;;11.30;99.90;;;;;;5096350;28;20478;-65
2022/06/28 03:08:34;;;;;;;56.35;34.22;;;11.20;99.90;;;;;;5096566;28;20033;-66
2022/06/28 03:11:00;;;;;;;56.63;36.20;;;11.20;99.90;;;;;;5096471;28;20024;-65
2022/06/28 03:13:26;;;;;;;50.15;31.48;;;11.10;99.90;;;;;;5096289;28;20475;-65
2022/06/28 03:15:52;;;;;;;52.20;33.17;;;11.10;99.90;;;;;;5096401;28;20021;-65
2022/06/28 03:18:18;;;;;;;51.05;33.25;;;11.10;99.90;;;;;;5096378;28;20023;-65
2022/06/28 03:20:44;;;;;;;56.80;33.60;;;11.00;99.90;;;;;;5096348;28;20506;-64
2022/06/28 03:23:10;;;;;;;48.40;32.35;;;11.00;99.90;;;;;;5095985;28;20112;-65
2022/06/28 03:25:36;;;;;;;44.88;30.58;;;11.10;99.90;;;;;;5094718;28;20032;-65
2022/06/28 03:28:04;;;;;;;42.92;28.55;;;11.10;99.90;;;;;;5094691;28;20020;-64
2022/06/28 03:30:30;;;;;;;45.95;29.75;;;11.10;99.90;;;;;;5095990;28;20085;-65
2022/06/28 03:32:56;;;;;;;44.50;30.10;;;11.00;99.90;;;;;;5095964;28;20510;-65
2022/06/28 03:35:22;;;;;;;40.22;27.45;;;11.00;99.90;;;;;;5096107;28;20028;-64
2022/06/28 03:37:47;;;;;;;36.30;26.33;;;11.00;99.90;;;;;;5095918;28;20099;-65
2022/06/28 03:40:13;;;;;;;36.65;25.83;;;11.00;99.90;;;;;;5095686;28;20028;-66
2022/06/28 03:42:38;;;;;;;34.53;26.27;;;11.00;99.90;;;;;;5094439;28;20032;-64
2022/06/28 03:45:05;;;;;;;36.17;26.30;;;11.00;99.90;;;;;;5095857;28;20054;-64
2022/06/28 03:47:31;;;;;;;39.15;26.50;;;10.90;99.90;;;;;;5095826;28;20016;-64
2022/06/28 03:49:56;;;;;;;35.50;25.33;;;11.00;99.90;;;;;;5095808;28;20020;-65
2022/06/28 03:52:29;;;;;;;38.67;25.75;;;11.00;99.90;;;;;;5095800;28;20031;-65
2022/06/28 03:54:57;;;;;;;44.33;28.98;;;11.00;99.90;;;;;;5095729;28;20028;-65
2022/06/28 03:57:24;;;;;;;49.22;32.10;;;11.00;99.90;;;;;;5095385;28;20031;-65
2022/06/28 03:59:50;;;;;;;41.25;29.55;;;11.10;99.90;;;;;;5095275;28;20486;-65
2022/06/28 04:02:16;;;;;;;43.08;29.20;;;11.10;99.90;;;;;;5095008;28;20054;-66
2022/06/28 04:04:42;;;;;;;43.83;28.95;;;11.10;99.90;;;;;;5094092;28;20105;-64
2022/06/28 04:07:07;;;;;;;45.30;28.55;;;11.20;99.90;;;;;;5095476;28;20024;-65
2022/06/28 04:09:33;;;;;;;41.13;27.85;;;11.30;99.90;;;;;;5095181;28;20020;-65
2022/06/28 04:11:58;;;;;;;52.95;33.08;;;11.30;99.90;;;;;;5093844;28;20032;-65
2022/06/28 04:14:24;;;;;;;45.38;31.70;;;11.50;99.90;;;;;;5095009;28;20028;-66
2022/06/28 04:16:50;;;;;;;44.45;29.80;;;11.50;99.90;;;;;;5093709;28;20441;-66
2022/06/28 04:19:15;;;;;;;51.05;34.20;;;11.50;99.90;;;;;;5094948;28;20039;-66
2022/06/28 04:21:41;;;;;;;46.85;31.40;;;11.60;99.90;;;;;;5095067;28;20020;-66
2022/06/28 04:24:07;;;;;;;49.65;33.17;;;11.70;99.90;;;;;;5093880;28;20024;-66
2022/06/28 04:26:33;;;;;;;47.63;31.35;;;11.90;99.90;;;;;;5094748;28;20111;-66
2022/06/28 04:28:58;;;;;;;38.65;30.13;;;12.00;99.90;;;;;;5093543;28;20027;-66
2022/06/28 04:31:24;;;;;;;41.30;30.48;;;12.10;99.90;;;;;;5094950;28;20016;-65
2022/06/28 04:33:50;;;;;;;48.10;33.25;;;12.20;99.90;;;;;;5093568;28;20064;-66
2022/06/28 04:36:16;;;;;;;33.53;24.75;;;13.00;99.90;;;;;;5094878;28;20070;-66
2022/06/28 04:38:41;;;;;;;31.73;24.45;;;13.40;99.90;;;;;;5094923;28;20051;-65
2022/06/28 04:41:07;;;;;;;28.65;20.38;;;14.20;99.90;;;;;;5095058;28;20047;-65
2022/06/28 04:43:32;;;;;;;24.27;17.63;;;14.50;99.90;;;;;;5095088;28;20024;-66
2022/06/28 04:45:59;;;;;;;17.00;13.65;;;15.90;99.90;;;;;;5094972;28;20020;-65
2022/06/28 04:48:25;;;;;;;12.02;10.85;;;17.20;99.90;;;;;;5094832;28;20439;-65
2022/06/28 04:50:50;;;;;;;11.30;9.95;;;17.20;99.90;;;;;;5094751;28;20063;-65
2022/06/28 04:53:16;;;;;;;11.52;8.20;;;18.50;99.90;;;;;;5094489;28;20115;-65
2022/06/28 04:55:42;;;;;;;10.35;7.38;;;19.60;99.90;;;;;;5094411;28;20031;-65
2022/06/28 04:58:08;;;;;;;12.75;8.10;;;20.60;99.90;;;;;;5094632;28;20024;-65
2022/06/28 05:00:33;;;;;;;8.30;7.60;;;21.00;99.90;;;;;;5094321;28;20016;-63
2022/06/28 05:02:59;;;;;;;8.50;7.70;;;21.10;99.90;;;;;;5094008;28;20047;-63
2022/06/28 05:05:25;;;;;;;10.57;7.30;;;21.60;99.90;;;;;;5094449;28;20073;-63
2022/06/28 05:07:50;;;;;;;9.05;7.65;;;22.10;99.90;;;;;;5094384;28;20490;-63
2022/06/28 05:10:16;;;;;;;7.55;6.05;;;22.10;99.90;;;;;;5094199;28;20528;-64
2022/06/28 05:12:41;;;;;;;6.78;6.18;;;22.50;99.90;;;;;;5093990;28;20035;-63
2022/06/28 05:15:07;;;;;;;7.85;6.47;;;22.90;99.90;;;;;;5094409;28;20027;-63
2022/06/28 05:17:33;;;;;;;10.70;7.13;;;23.50;99.90;;;;;;5094215;28;20024;-63
2022/06/28 05:19:58;;;;;;;6.68;6.07;;;23.30;99.90;;;;;;5094049;28;20028;-63
2022/06/28 05:22:24;;;;;;;6.65;5.72;;;23.50;99.90;;;;;;5094008;28;20055;-63
2022/06/28 05:24:49;;;;;;;7.70;6.82;;;24.10;99.90;;;;;;5093986;28;20035;-64
2022/06/28 05:27:15;;;;;;;9.63;6.63;;;24.40;99.90;;;;;;5093568;28;20474;-63
2022/06/28 05:29:41;;;;;;;6.72;6.13;;;24.30;99.90;;;;;;5093803;28;20105;-64
2022/06/28 05:32:07;;;;;;;8.65;6.10;;;23.90;99.90;;;;;;5093639;28;20036;-63
2022/06/28 05:34:32;;;;;;;9.02;5.82;;;24.20;99.90;;;;;;5093463;28;20028;-64
2022/06/28 05:36:58;;;;;;;6.90;6.20;;;24.90;99.90;;;;;;5092633;28;20020;-64
2022/06/28 05:39:24;;;;;;;11.02;5.97;;;25.90;98.80;;;;;;5093769;28;20024;-64
2022/06/28 05:41:49;;;;;;;7.32;5.90;;;25.90;98.40;;;;;;5093433;28;20024;-64
2022/06/28 05:44:16;;;;;;;8.18;5.88;;;25.10;98.80;;;;;;5093727;28;20023;-64
2022/06/28 05:46:41;;;;;;;12.88;6.03;;;24.80;99.40;;;;;;5093670;28;20528;-64
2022/06/28 05:49:08;;;;;;;8.63;5.68;;;24.10;99.90;;;;;;5093511;28;20024;-64
2022/06/28 05:51:33;;;;;;;9.45;6.18;;;24.40;99.90;;;;;;5093499;28;20027;-64
2022/06/28 05:53:59;;;;;;;8.52;5.88;;;24.60;99.90;;;;;;5093566;28;20020;-64
2022/06/28 05:56:25;;;;;;;9.27;6.10;;;23.80;99.90;;;;;;5093534;28;20378;-64
2022/06/28 05:58:50;;;;;;;11.20;6.32;;;23.20;99.90;;;;;;5093327;28;20393;-64
2022/06/28 06:01:16;;;;;;;8.05;5.88;;;23.30;99.90;;;;;;5092954;28;20055;-63
2022/06/28 06:03:42;;;;;;;10.15;6.35;;;23.30;99.90;;;;;;5093400;28;20031;-64
2022/06/28 06:06:07;;;;;;;11.43;6.32;;;23.50;99.90;;;;;;5093405;28;20020;-64
2022/06/28 06:08:35;;;;;;;10.23;6.20;;;22.90;99.90;;;;;;5091937;28;20032;-63
2022/06/28 06:11:02;;;;;;;13.05;6.05;;;23.20;99.90;;;;;;5093351;28;20420;-63
2022/06/28 06:13:28;;;;;;;13.25;5.97;;;23.50;99.90;;;;;;5092832;28;20035;-64
2022/06/28 06:15:54;;;;;;;14.13;6.38;;;23.40;99.90;;;;;;5093353;28;20024;-64
2022/06/28 06:18:20;;;;;;;9.95;6.00;;;23.20;99.90;;;;;;5093206;28;20036;-63
2022/06/28 06:20:46;;;;;;;9.07;6.15;;;23.00;99.90;;;;;;5091846;28;20035;-64
2022/06/28 06:23:12;;;;;;;7.72;5.70;;;23.30;99.90;;;;;;5094246;28;20028;-63
2022/06/28 06:25:37;;;;;;;7.63;6.57;;;22.90;99.90;;;;;;5097054;28;20047;-64
2022/06/28 06:28:03;;;;;;;11.40;7.15;;;22.40;99.90;;;;;;5097233;28;20024;-65
2022/06/28 06:30:29;;;;;;;10.88;6.28;;;22.10;99.90;;;;;;5097234;28;20501;-66
2022/06/28 06:32:55;;;;;;;12.70;6.22;;;22.60;99.90;;;;;;5097241;28;20062;-65
2022/06/28 06:35:20;;;;;;;9.40;6.32;;;22.60;99.90;;;;;;5097150;28;20028;-65
2022/06/28 06:37:46;;;;;;;8.18;6.10;;;23.00;99.90;;;;;;5095926;28;20024;-66
2022/06/28 06:40:12;;;;;;;10.35;6.25;;;23.10;99.90;;;;;;5093098;28;20138;-66
2022/06/28 06:42:37;;;;;;;11.98;6.88;;;23.00;99.90;;;;;;5096547;28;20502;-66
2022/06/28 06:45:03;;;;;;;10.50;5.85;;;22.30;99.90;;;;;;5094597;28;20121;-65
2022/06/28 06:47:29;;;;;;;11.77;5.50;;;21.80;99.90;;;;;;5088437;28;20025;-66
2022/06/28 06:49:54;;;;;;;7.07;5.22;;;22.20;99.90;;;;;;5074861;28;20031;-66
2022/06/28 06:52:20;;;;;;;10.00;5.03;;;22.40;99.90;;;;;;5093138;28;20059;-66
2022/06/28 06:54:46;;;;;;;11.25;5.68;;;22.90;99.90;;;;;;5093024;28;20045;-65
2022/06/28 06:57:11;;;;;;;7.47;5.22;;;22.90;99.90;;;;;;5091413;28;20074;-66
2022/06/28 06:59:37;;;;;;;6.30;5.22;;;22.80;99.90;;;;;;5076330;28;20020;-66
2022/06/28 07:02:03;;;;;;;6.65;4.95;;;22.90;99.90;;;;;;5082869;28;20468;-66
2022/06/28 07:04:28;;;;;;;9.80;4.88;;;23.80;99.90;;;;;;5090026;28;20029;-66
2022/06/28 07:06:55;;;;;;;7.45;4.40;;;24.10;99.90;;;;;;5080285;28;20020;-65
2022/06/28 07:09:22;;;;;;;6.93;3.85;;;24.10;99.90;;;;;;5096170;28;20051;-66
2022/06/28 07:11:48;;;;;;;7.78;3.88;;;24.40;99.90;;;;;;5093148;28;20520;-66
2022/06/28 07:14:14;;;;;;;6.25;3.30;;;24.10;99.90;;;;;;5079449;28;20024;-66
2022/06/28 07:16:40;;;;;;;8.43;3.78;;;23.90;99.90;;;;;;5094615;28;20032;-65
2022/06/28 07:19:05;;;;;;;9.52;3.70;;;25.00;99.90;;;;;;5087377;28;20043;-66
2022/06/28 07:21:31;;;;;;;8.32;3.75;;;24.40;99.90;;;;;;5074420;28;20029;-66
2022/06/28 07:23:57;;;;;;;8.25;2.88;;;24.80;99.90;;;;;;5096596;28;20024;-67
2022/06/28 07:26:23;;;;;;;4.93;2.03;;;24.30;99.50;;;;;;5101817;28;20019;-67
2022/06/28 07:28:49;;;;;;;6.00;2.20;;;25.00;98.60;;;;;;5108880;28;20024;-67
2022/06/28 07:31:15;;;;;;;7.43;2.50;;;25.60;96.90;;;;;;5114273;28;20019;-67
2022/06/28 07:33:41;;;;;;;8.60;2.40;;;25.20;96.60;;;;;;5109950;28;20435;-67
2022/06/28 07:36:07;;;;;;;5.63;2.03;;;24.80;97.20;;;;;;5095563;28;20020;-66
2022/06/28 07:38:33;;;;;;;4.43;1.83;;;24.70;97.40;;;;;;5095763;28;20047;-67
2022/06/28 07:40:59;;;;;;;7.45;1.60;;;24.10;97.20;;;;;;5111038;28;20031;-67
2022/06/28 07:43:25;;;;;;;7.75;1.80;;;24.60;94.50;;;;;;5107146;28;20060;-67
2022/06/28 07:45:52;;;;;;;5.13;1.80;;;24.40;96.30;;;;;;5099705;28;20024;-66
2022/06/28 07:48:19;;;;;;;9.75;2.25;;;24.80;95.10;;;;;;5099615;28;20466;-67
2022/06/28 07:53:32;;;;;;;8.00;2.03;;;24.90;93.70;;;;;;5100634;28;20508;-67
2022/06/28 07:55:58;;;;;;;3.35;1.60;;;26.30;94.00;;;;;;5102052;28;20045;-68
2022/06/28 07:58:24;;;;;;;3.55;1.52;;;25.70;91.80;;;;;;5097809;28;20052;-67
2022/06/28 08:00:50;;;;;;;3.45;1.38;;;26.50;91.90;;;;;;5103456;28;20027;-66
2022/06/28 08:03:15;;;;;;;4.50;1.40;;;26.50;90.30;;;;;;5115305;28;20040;-67
2022/06/28 08:05:41;;;;;;;2.75;1.25;;;26.40;90.30;;;;;;5100621;28;20041;-67
2022/06/28 08:08:07;;;;;;;4.10;2.00;;;26.20;90.00;;;;;;5112628;28;20031;-68
2022/06/28 08:10:33;;;;;;;4.38;1.90;;;26.60;89.50;;;;;;5101354;28;20107;-68
2022/06/28 08:12:58;;;;;;;2.28;1.40;;;26.20;90.20;;;;;;5095213;28;20169;-68
2022/06/28 08:15:24;;;;;;;3.05;1.35;;;26.70;90.40;;;;;;5106912;28;20023;-67
2022/06/28 08:17:49;;;;;;;6.68;1.60;;;25.60;87.70;;;;;;5101117;28;20111;-67
2022/06/28 08:20:15;;;;;;;6.55;1.80;;;25.70;91.20;;;;;;5104745;28;20398;-67
2022/06/28 08:22:40;;;;;;;4.40;1.50;;;25.20;92.60;;;;;;5114209;28;20053;-67
2022/06/28 08:25:07;;;;;;;5.38;1.45;;;25.50;91.50;;;;;;5106539;28;20032;-68
2022/06/28 08:27:32;;;;;;;3.80;1.60;;;25.60;90.60;;;;;;5104808;28;20031;-67
2022/06/28 08:29:58;;;;;;;4.00;1.30;;;25.80;90.90;;;;;;5113273;28;20095;-67
2022/06/28 08:32:24;;;;;;;4.05;1.70;;;25.30;90.80;;;;;;5115298;28;20120;-67
2022/06/28 08:34:50;;;;;;;3.33;1.40;;;25.30;92.50;;;;;;5097799;28;20024;-67
2022/06/28 08:37:17;;;;;;;5.78;1.70;;;25.70;90.90;;;;;;5111401;28;20059;-67
2022/06/28 08:39:43;;;;;;;5.18;2.10;;;25.20;91.60;;;;;;5112887;28;20024;-67
2022/06/28 08:42:11;;;;;;;6.32;2.22;;;25.40;91.90;;;;;;5107121;28;20027;-67
2022/06/28 08:44:37;;;;;;;6.65;1.90;;;24.70;92.70;;;;;;5110045;28;20028;-67
2022/06/28 08:47:04;;;;;;;7.10;2.85;;;25.40;91.30;;;;;;5110507;28;20038;-67
2022/06/28 08:50:00;;;;;;;3.05;1.65;;;25.20;91.30;;;;;;5094733;28;20055;-67
2022/06/28 08:52:26;;;;;;;4.72;1.60;;;26.50;87.30;;;;;;5095837;28;20029;-68
2022/06/28 08:54:52;;;;;;;3.63;1.42;;;26.20;85.70;;;;;;5097457;28;20039;-68
2022/06/28 08:57:19;;;;;;;6.57;1.80;;;26.00;87.80;;;;;;5114487;28;20062;-68
2022/06/28 08:59:47;;;;;;;3.83;1.65;;;25.30;90.60;;;;;;5101879;28;20474;-67
2022/06/28 09:02:14;;;;;;;5.68;1.73;;;25.90;88.60;;;;;;5108599;28;20566;-67
2022/06/28 09:04:45;;;;;;;5.30;1.80;;;26.90;85.70;;;;;;5094019;28;20328;-67
2022/06/28 09:07:11;;;;;;;7.50;2.25;;;27.30;82.00;;;;;;5094100;28;20024;-68
2022/06/28 09:09:37;;;;;;;6.60;1.65;;;27.60;83.20;;;;;;5094142;28;20024;-68
2022/06/28 09:12:03;;;;;;;4.50;1.70;;;27.10;81.90;;;;;;5096346;28;20023;-67
2022/06/28 09:14:33;;;;;;;2.22;1.40;;;27.00;84.80;;;;;;5114102;28;20023;-67
2022/06/28 09:17:15;;;;;;;4.68;1.35;;;27.00;85.00;;;;;;5112543;28;20024;-67
2022/06/28 09:19:41;;;;;;;4.03;1.73;;;25.50;84.30;;;;;;5073450;28;20031;-65
2022/06/28 09:22:07;;;;;;;3.85;1.42;;;26.10;86.70;;;;;;5082773;28;20122;-66
2022/06/28 09:24:34;;;;;;;5.53;1.88;;;26.60;82.80;;;;;;5114039;28;20027;-65
2022/06/28 09:27:04;;;;;;;3.25;1.58;;;26.60;84.90;;;;;;5111031;28;20028;-65
2022/06/28 09:29:46;;;;;;;6.82;1.70;;;26.60;84.80;;;;;;5114226;28;20031;-66
2022/06/28 09:32:12;;;;;;;3.95;1.50;;;27.30;83.20;;;;;;5107816;28;20474;-66
2022/06/28 09:34:54;;;;;;;5.50;1.30;;;27.80;79.60;;;;;;5106640;28;20024;-65
2022/06/28 09:37:41;;;;;;;3.60;1.30;;;27.60;81.60;;;;;;5103354;28;20584;-66
2022/06/28 09:40:14;;;;;;;3.83;1.35;;;27.10;76.40;;;;;;5107582;28;20024;-66
2022/06/28 09:42:41;;;;;;;5.95;1.50;;;26.20;77.30;;;;;;5093362;28;20024;-66
2022/06/28 09:45:08;;;;;;;6.45;1.70;;;26.00;81.60;;;;;;5093122;28;20020;-66
2022/06/28 09:47:33;;;;;;;3.72;1.60;;;26.30;79.10;;;;;;5107597;28;20030;-65
2022/06/28 09:50:00;;;;;;;3.22;1.48;;;27.30;77.70;;;;;;5094466;28;20115;-65
2022/06/28 09:52:29;;;;;;;3.80;1.70;;;26.90;78.00;;;;;;5098867;28;20016;-66
2022/06/28 09:54:56;;;;;;;3.85;1.67;;;27.30;81.00;;;;;;5098984;28;20050;-65
2022/06/28 09:57:22;;;;;;;3.03;1.40;;;27.60;76.20;;;;;;5107277;28;20032;-67
2022/06/28 09:59:50;;;;;;;3.70;1.60;;;26.90;78.30;;;;;;5111642;28;20030;-65
2022/06/28 10:02:17;;;;;;;7.97;1.60;;;27.30;80.10;;;;;;5113253;28;20043;-68
2022/06/28 10:04:44;;;;;;;5.50;1.70;;;26.90;82.50;;;;;;5099899;28;20045;-68
2022/06/28 10:07:11;;;;;;;2.42;1.20;;;26.30;78.30;;;;;;5094106;28;20027;-68
2022/06/28 10:09:37;;;;;;;4.68;1.83;;;26.50;78.10;;;;;;5107756;28;20385;-68
2022/06/28 10:15:08;;;;;;;4.90;1.55;;;26.90;77.00;;;;;;5112102;28;20055;-67
2022/06/28 10:20:17;;;;;;;5.20;1.70;;;27.70;74.40;;;;;;5090393;28;20114;-67
2022/06/28 10:22:43;;;;;;;4.07;1.42;;;25.60;78.10;;;;;;5090607;28;20073;-68
2022/06/28 10:25:19;;;;;;;3.97;1.60;;;25.70;79.80;;;;;;5090083;28;20479;-67
2022/06/28 10:27:47;;;;;;;3.65;1.77;;;25.00;80.60;;;;;;5089967;28;20017;-67
2022/06/28 10:32:55;;;;;;;7.15;1.80;;;25.40;83.20;;;;;;5110479;27;20351;-67
2022/06/28 10:38:20;;;;;;;4.88;1.45;;;26.70;78.60;;;;;;5097289;27;20335;-67
2022/06/28 10:40:49;;;;;;;6.15;1.90;;;28.00;76.80;;;;;;5090845;28;20032;-68
2022/06/28 10:43:35;;;;;;;3.15;1.30;;;27.80;73.20;;;;;;5090520;28;20078;-65
2022/06/28 10:51:32;;;;;;;4.97;1.35;;;27.70;74.00;;;;;;5070466;28;20353;-66
2022/06/28 10:54:01;;;;;;;3.05;1.40;;;26.70;72.00;;;;;;5069279;28;20079;-66
2022/06/28 10:56:29;;;;;;;2.33;1.15;;;26.70;74.00;;;;;;5070368;28;20024;-66
2022/06/28 10:59:03;;;;;;;4.53;1.38;;;26.10;72.60;;;;;;5070500;28;20025;-65
2022/06/28 11:01:52;;;;;;;5.55;1.55;;;25.40;76.00;;;;;;5070475;28;20475;-66
2022/06/28 11:04:23;;;;;;;6.45;1.75;;;25.30;72.50;;;;;;5070074;28;20025;-66
2022/06/28 11:06:56;;;;;;;11.10;2.05;;;26.30;72.20;;;;;;5070066;28;20020;-66
2022/06/28 11:09:48;;;;;;;5.78;1.45;;;26.30;75.00;;;;;;5070232;28;20029;-65
2022/06/28 11:12:19;;;;;;;4.45;1.45;;;26.30;70.80;;;;;;5069939;28;20431;-67
2022/06/28 11:15:03;;;;;;;3.05;1.30;;;25.90;71.90;;;;;;5069966;28;20425;-66
2022/06/28 11:17:32;;;;;;;;;;;25.80;73.00;;;;;;5070262;28;20017;-66
2022/06/28 11:20:15;;;;;;;3.80;1.25;;;25.90;73.20;;;;;;5070149;28;19998;-65
2022/06/28 11:22:43;;;;;;;3.92;1.45;;;26.30;73.10;;;;;;5070041;28;20029;-65
2022/06/28 11:25:12;;;;;;;5.93;1.70;;;26.40;73.10;;;;;;5069615;28;20060;-66
2022/06/28 11:27:56;;;;;;;3.22;1.17;;;26.40;72.60;;;;;;5068898;28;20548;-66
2022/06/28 11:30:40;;;;;;;5.57;1.45;;;26.70;74.80;;;;;;5064141;28;20086;-65
2022/06/28 11:33:08;;;;;;;3.47;1.33;;;27.00;73.80;;;;;;5068906;28;20023;-65
2022/06/28 11:35:34;;;;;;;5.78;1.70;;;26.90;72.70;;;;;;5069555;28;20055;-66
2022/06/28 11:38:03;;;;;;;6.15;1.40;;;26.90;71.60;;;;;;5069780;28;20483;-66
2022/06/28 11:40:42;;;;;;;8.32;1.70;;;27.10;71.50;;;;;;5069151;28;20027;-66
2022/06/28 11:43:12;;;;;;;4.28;1.55;;;26.40;72.60;;;;;;5069317;28;20509;-66
2022/06/28 11:45:42;;;;;;;2.28;1.08;;;25.70;75.70;;;;;;5069570;28;20463;-66
2022/06/28 11:48:13;;;;;;;4.90;1.33;;;25.40;74.00;;;;;;5068989;28;20017;-65
2022/06/28 11:50:42;;;;;;;2.47;1.00;;;25.70;74.40;;;;;;5060122;28;20410;-66
2022/06/28 11:53:09;;;;;;;4.53;1.45;;;26.30;71.50;;;;;;5069153;28;20132;-67
2022/06/28 11:55:39;;;;;;;3.13;1.15;;;26.90;71.30;;;;;;5068929;28;20024;-69
2022/06/28 11:58:23;;;;;;;6.50;4.75;;;26.80;68.40;;;;;;5068565;28;20025;-66
2022/06/28 12:06:25;;;;;;;3.15;1.63;;;26.10;69.80;;;;;;5119445;27;20795;-66
2022/06/28 12:08:55;;;;;;;3.05;1.60;;;26.50;70.60;;;;;;5115893;27;20020;-66
2022/06/28 12:11:44;;;;;;;4.63;1.30;;;26.10;73.00;;;;;;5125884;28;20038;-67
2022/06/28 12:14:17;;;;;;;1.95;1.30;;;26.00;71.10;;;;;;5113493;27;20020;-66
2022/06/28 12:16:47;;;;;;;3.50;1.50;;;25.70;71.90;;;;;;5110980;28;20110;-66
2022/06/28 12:19:15;;;;;;;3.22;1.30;;;25.60;73.20;;;;;;5127602;28;20504;-65
2022/06/28 12:22:16;;;;;;;6.65;1.50;;;25.70;72.20;;;;;;5131433;27;20051;-65
2022/06/28 12:24:56;;;;;;;6.63;1.58;;;25.80;72.10;;;;;;5090443;28;20474;-65
2022/06/28 12:27:26;;;;;;;4.18;1.45;;;25.50;73.50;;;;;;5091349;28;20039;-66
2022/06/28 12:29:53;;;;;;;4.57;1.58;;;26.00;70.50;;;;;;5129589;28;20015;-65
2022/06/28 12:32:19;;;;;;;4.03;1.30;;;26.10;71.20;;;;;;5130514;27;20110;-65
2022/06/28 12:34:45;;;;;;;6.25;1.40;;;26.40;71.70;;;;;;5131050;27;20398;-66
2022/06/28 12:37:12;;;;;;;4.47;1.40;;;26.60;71.50;;;;;;5131030;27;20448;-66
2022/06/28 12:39:38;;;;;;;5.18;1.38;;;26.50;69.80;;;;;;5111071;27;20042;-65
2022/06/28 12:42:05;;;;;;;4.03;1.25;;;26.10;72.50;;;;;;5110434;28;20027;-65
2022/06/28 12:44:31;;;;;;;4.00;1.38;;;26.20;70.80;;;;;;5110268;28;20024;-66
2022/06/28 12:46:57;;;;;;;4.15;1.30;;;25.70;68.10;;;;;;5114043;28;20047;-65
2022/06/28 12:49:23;;;;;;;6.15;1.42;;;25.10;73.40;;;;;;5114033;27;20104;-66
2022/06/28 12:51:50;;;;;;;4.40;1.40;;;25.50;73.60;;;;;;5111245;28;20120;-65
2022/06/28 12:54:16;;;;;;;3.00;1.33;;;25.80;73.60;;;;;;5109990;28;20034;-66
2022/06/28 12:56:42;;;;;;;2.55;1.30;;;26.30;72.80;;;;;;5119379;28;20422;-65
2022/06/28 12:59:08;;;;;;;3.78;1.23;;;26.60;71.80;;;;;;5130737;28;20027;-65
2022/06/28 13:01:34;;;;;;;3.90;1.40;;;26.80;69.10;;;;;;5112471;27;20477;-65
2022/06/28 13:04:00;;;;;;;4.03;1.40;;;27.00;70.30;;;;;;5118955;28;20020;-65
2022/06/28 13:06:26;;;;;;;7.10;1.67;;;27.00;70.40;;;;;;5112214;28;20382;-68
2022/06/28 13:08:51;;;;;;;2.72;1.00;;;27.00;67.80;;;;;;5111102;28;20031;-67
2022/06/28 13:11:22;;;;;;;3.28;1.38;;;27.10;67.00;;;;;;5127115;28;20024;-67